createdAt,value
2019-06-07T00:01:03.336Z,95313.86
2019-06-07T00:03:30.450Z,95314.75
2019-06-07T00:05:56.631Z,95318.84
2019-06-07T00:08:28.585Z,95329.45
2019-06-07T00:10:49.951Z,95325.66
2019-06-07T00:13:18.711Z,95328.03
2019-06-07T00:15:43.241Z,95317.33
2019-06-07T00:20:36.483Z,95312.28
2019-06-07T00:23:03.121Z,95306.37
2019-06-07T00:27:56.542Z,95319.41
2019-06-07T00:30:44.568Z,95314.08
2019-06-07T00:32:49.822Z,95310.44
2019-06-07T00:35:20.265Z,95312.71
2019-06-07T00:37:43.100Z,95308.41
2019-06-07T00:40:17.379Z,95307.91
2019-06-07T00:42:36.384Z,95308.92
2019-06-07T00:45:03.030Z,95309.08
2019-06-07T00:47:29.685Z,95307.94
2019-06-07T00:49:56.323Z,95306.67
2019-06-07T00:53:11.251Z,95311.09
2019-06-07T00:54:49.627Z,95307.05
2019-06-07T00:57:16.709Z,95305.81
2019-06-07T01:02:09.543Z,95309.50
2019-06-07T01:04:36.246Z,95310.64
2019-06-07T01:07:02.882Z,95307.86
2019-06-07T01:09:29.522Z,95314.08
2019-06-07T01:11:56.200Z,95314.33
2019-06-07T01:14:27.603Z,95314.95
2019-06-07T01:16:57.278Z,95311.83
2019-06-07T01:19:16.355Z,95311.65
2019-06-07T01:21:42.711Z,95309.66
2019-06-07T01:24:12.283Z,95307.13
2019-06-07T01:26:35.988Z,95307.48
2019-06-07T01:29:02.662Z,95307.66
2019-06-07T01:31:31.523Z,95303.88
2019-06-07T01:33:55.904Z,95310.71
2019-06-07T01:36:28.494Z,95312.13
2019-06-07T01:38:49.187Z,95309.70
2019-06-07T01:41:17.346Z,95302.76
2019-06-07T01:46:09.136Z,95299.78
2019-06-07T01:48:49.104Z,95301.02
2019-06-07T01:51:02.441Z,95301.27
2019-06-07T01:53:31.383Z,95307.58
2019-06-07T01:55:55.713Z,95302.94
2019-06-07T01:58:24.780Z,95305.81
2019-06-07T02:00:49.019Z,95307.47
2019-06-07T02:03:15.667Z,95310.15
2019-06-07T02:05:42.325Z,95306.46
2019-06-07T02:08:08.954Z,95307.85
2019-06-07T02:10:35.589Z,95319.44
2019-06-07T02:13:02.231Z,95325.24
2019-06-07T02:15:35.892Z,95325.31
2019-06-07T02:17:55.522Z,95326.17
2019-06-07T02:20:25.783Z,95334.13
2019-06-07T02:22:48.837Z,95335.14
2019-06-07T02:27:42.103Z,95330.36
2019-06-07T02:30:35.575Z,95329.75
2019-06-07T02:32:37.051Z,95334.69
2019-06-07T02:35:02.026Z,95338.55
2019-06-07T02:37:32.322Z,95338.22
2019-06-07T02:39:55.305Z,95345.81
2019-06-07T02:42:28.264Z,95350.42
2019-06-07T02:44:48.577Z,95346.88
2019-06-07T02:47:15.218Z,95345.29
2019-06-07T02:49:42.520Z,95354.48
2019-06-07T02:52:08.543Z,95350.97
2019-06-07T02:54:39.838Z,95344.51
2019-06-07T02:57:01.766Z,95344.06
2019-06-07T02:59:56.682Z,95347.08
2019-06-07T03:01:55.054Z,95352.75
2019-06-07T03:06:48.340Z,95363.84
2019-06-07T03:09:14.979Z,95370.92
2019-06-07T03:11:41.653Z,95373.17
2019-06-07T03:14:08.252Z,95371.02
2019-06-07T03:16:37.357Z,95372.77
2019-06-07T03:19:01.534Z,95374.91
2019-06-07T03:21:29.442Z,95386.26
2019-06-07T03:23:54.813Z,95395.85
2019-06-07T03:26:21.449Z,95398.86
2019-06-07T03:28:48.089Z,95413.90
2019-06-07T03:31:14.735Z,95404.59
2019-06-07T03:33:44.961Z,95414.80
2019-06-07T03:36:23.391Z,95418.80
2019-06-07T03:38:35.347Z,95415.43
2019-06-07T03:41:01.318Z,95414.15
2019-06-07T03:43:29.857Z,95400.83
2019-06-07T03:45:54.657Z,95418.66
2019-06-07T03:48:21.307Z,95415.09
2019-06-07T03:50:47.935Z,95408.91
2019-06-07T03:53:14.618Z,95404.95
2019-06-07T03:55:41.563Z,95404.19
2019-06-07T04:00:37.353Z,95409.09
2019-06-07T04:03:01.162Z,95411.40
2019-06-07T04:05:28.753Z,95417.36
2019-06-07T04:07:54.423Z,95412.03
2019-06-07T04:10:42.778Z,95417.22
2019-06-07T04:12:47.698Z,95414.08
2019-06-07T04:15:14.348Z,95416.46
2019-06-07T04:18:00.392Z,95418.30
2019-06-07T04:20:07.624Z,95421.17
2019-06-07T04:22:37.658Z,95430.66
2019-06-07T04:25:00.912Z,95430.14
2019-06-07T04:27:28.192Z,95433.97
2019-06-07T04:30:06.316Z,95431.63
2019-06-07T04:32:20.884Z,95435.20
2019-06-07T04:34:47.527Z,95433.15
2019-06-07T04:37:14.167Z,95434.80
2019-06-07T04:39:44.703Z,95427.05
2019-06-07T04:42:07.481Z,95431.75
2019-06-07T04:44:35.065Z,95438.95
2019-06-07T04:47:00.756Z,95438.20
2019-06-07T04:49:27.373Z,95448.48
2019-06-07T04:51:54.015Z,95448.13
2019-06-07T04:54:20.650Z,95446.30
2019-06-07T04:56:47.298Z,95449.02
2019-06-07T05:00:00.446Z,95454.55
2019-06-07T05:01:42.777Z,95452.69
2019-06-07T05:04:08.414Z,95454.52
2019-06-07T05:06:37.587Z,95456.92
2019-06-07T05:09:01.674Z,95459.33
2019-06-07T05:11:31.478Z,95458.85
2019-06-07T05:13:54.944Z,95461.54
2019-06-07T05:16:21.682Z,95465.65
2019-06-07T05:18:48.318Z,95462.55
2019-06-07T05:21:14.972Z,95463.84
2019-06-07T05:24:05.645Z,95471.37
2019-06-07T05:26:08.252Z,95467.35
2019-06-07T05:28:35.731Z,95471.75
2019-06-07T05:31:05.327Z,95481.58
2019-06-07T05:33:28.180Z,95482.43
2019-06-07T05:35:54.818Z,95479.39
2019-06-07T05:38:21.456Z,95482.08
2019-06-07T05:40:48.921Z,95476.38
2019-06-07T05:43:14.741Z,95475.20
2019-06-07T05:45:44.890Z,95481.87
2019-06-07T05:48:08.209Z,95478.80
2019-06-07T05:50:47.749Z,95475.38
2019-06-07T05:55:28.103Z,95490.83
2019-06-07T05:57:54.771Z,95484.92
2019-06-07T06:00:21.417Z,95474.08
2019-06-07T06:03:04.341Z,95478.47
2019-06-07T06:05:32.499Z,95479.53
2019-06-07T06:07:45.321Z,95479.14
2019-06-07T06:10:07.969Z,95473.03
2019-06-07T06:12:40.111Z,95470.62
2019-06-07T06:15:01.271Z,95475.13
2019-06-07T06:17:27.920Z,95468.08
2019-06-07T06:19:54.609Z,95472.31
2019-06-07T06:22:21.261Z,95480.53
2019-06-07T06:25:28.827Z,95479.27
2019-06-07T06:28:01.275Z,95478.80
2019-06-07T06:29:43.918Z,95477.30
2019-06-07T06:32:41.043Z,95480.34
2019-06-07T06:34:40.036Z,95474.76
2019-06-07T06:37:02.899Z,95475.60
2019-06-07T06:39:29.538Z,95473.14
2019-06-07T06:42:03.171Z,95477.70
2019-06-07T06:44:23.747Z,95471.55
2019-06-07T06:46:57.526Z,95470.36
2019-06-07T06:49:17.022Z,95462.60
2019-06-07T06:51:47.834Z,95460.75
2019-06-07T06:54:10.311Z,95457.97
2019-06-07T06:56:36.964Z,95462.27
2019-06-07T07:01:30.294Z,95459.06
2019-06-07T07:04:10.654Z,95459.61
2019-06-07T07:06:26.334Z,95463.82
2019-06-07T07:08:51.411Z,95460.24
2019-06-07T07:11:16.891Z,95466.90
2019-06-07T07:13:48.026Z,95467.20
2019-06-07T07:16:10.166Z,95467.53
2019-06-07T07:18:36.805Z,95473.36
2019-06-07T07:21:03.447Z,95468.34
2019-06-07T07:23:30.082Z,95462.17
2019-06-07T07:25:59.265Z,95462.59
2019-06-07T07:28:23.387Z,95466.77
2019-06-07T07:30:54.545Z,95461.34
2019-06-07T07:33:16.965Z,95465.38
2019-06-07T07:36:09.628Z,95460.53
2019-06-07T07:38:10.198Z,95459.23
2019-06-07T07:40:56.872Z,95453.36
2019-06-07T07:43:03.522Z,95462.89
2019-06-07T07:45:30.167Z,95477.20
2019-06-07T07:48:14.168Z,95476.47
2019-06-07T07:50:23.462Z,95483.23
2019-06-07T07:52:55.974Z,95476.86
2019-06-07T07:55:16.814Z,95480.33
2019-06-07T07:57:45.905Z,95465.52
2019-06-07T08:00:48.831Z,95473.73
2019-06-07T08:02:36.701Z,95487.21
2019-06-07T08:05:25.724Z,95480.87
2019-06-07T08:07:30.558Z,95485.81
2019-06-07T08:10:00.065Z,95481.47
2019-06-07T08:12:23.281Z,95490.33
2019-06-07T08:14:51.228Z,95495.65
2019-06-07T08:19:43.334Z,95489.83
2019-06-07T08:22:11.008Z,95482.52
2019-06-07T08:24:37.643Z,95500.89
2019-06-07T08:27:24.734Z,95499.50
2019-06-07T08:29:44.244Z,95490.16
2019-06-07T08:31:58.696Z,95497.33
2019-06-07T08:34:24.213Z,95499.81
2019-06-07T08:36:52.249Z,95481.33
2019-06-07T08:39:17.512Z,95493.94
2019-06-07T08:41:53.896Z,95488.37
2019-06-07T08:44:23.388Z,95491.07
2019-06-07T08:46:37.473Z,95490.44
2019-06-07T08:49:04.857Z,95489.80
2019-06-07T08:51:30.879Z,95491.39
2019-06-07T08:54:18.756Z,95488.42
2019-06-07T08:56:24.201Z,95502.16
2019-06-07T09:01:17.625Z,95494.40
2019-06-07T09:03:44.258Z,95495.32
2019-06-07T09:06:53.982Z,95493.39
2019-06-07T09:11:10.205Z,95488.89
2019-06-07T09:13:30.885Z,95484.77
2019-06-07T09:16:03.457Z,95482.56
2019-06-07T09:18:41.354Z,95484.64
2019-06-07T09:20:50.837Z,95482.43
2019-06-07T09:23:18.043Z,95473.67
2019-06-07T09:25:56.505Z,95470.03
2019-06-07T09:28:18.765Z,95475.31
2019-06-07T09:30:37.560Z,95479.77
2019-06-07T09:33:06.923Z,95474.48
2019-06-07T09:35:30.913Z,95421.67
2019-06-07T09:38:18.172Z,95471.98
2019-06-07T09:40:27.735Z,95473.95
2019-06-07T09:43:38.540Z,95468.17
2019-06-07T09:45:17.523Z,95470.41
2019-06-07T09:47:44.169Z,95471.49
2019-06-07T09:50:12.319Z,95473.00
2019-06-07T09:52:56.995Z,95472.84
2019-06-07T09:55:15.375Z,95472.11
2019-06-07T09:57:30.813Z,95465.27
2019-06-07T09:59:57.955Z,95463.36
2019-06-07T10:02:24.098Z,95455.88
2019-06-07T10:04:50.740Z,95461.05
2019-06-07T10:07:31.170Z,95457.99
2019-06-07T10:12:10.788Z,95452.84
2019-06-07T10:14:37.431Z,95456.44
2019-06-07T10:17:05.052Z,95452.52
2019-06-07T10:19:30.721Z,95456.31
2019-06-07T10:21:57.361Z,95455.30
2019-06-07T10:24:24.005Z,95460.77
2019-06-07T10:26:50.664Z,95460.95
2019-06-07T10:31:43.956Z,95449.07
2019-06-07T10:34:10.939Z,95454.59
2019-06-07T10:36:37.274Z,95456.84
2019-06-07T10:39:04.714Z,95454.02
2019-06-07T10:41:30.547Z,95451.64
2019-06-07T10:43:57.181Z,95443.69
2019-06-07T10:46:23.833Z,95447.34
2019-06-07T10:48:50.478Z,95445.55
2019-06-07T10:51:17.124Z,95437.45
2019-06-07T10:53:43.835Z,95437.44
2019-06-07T10:56:11.091Z,95436.69
2019-06-07T10:58:37.127Z,95434.55
2019-06-07T11:01:04.976Z,95436.10
2019-06-07T11:03:30.446Z,95440.73
2019-06-07T11:05:57.133Z,95434.38
2019-06-07T11:08:23.807Z,95424.45
2019-06-07T11:10:50.490Z,95425.75
2019-06-07T11:13:17.148Z,95430.09
2019-06-07T11:15:43.829Z,95404.61
2019-06-07T11:18:10.463Z,95428.63
2019-06-07T11:20:37.098Z,95423.17
2019-06-07T11:23:03.764Z,95420.69
2019-06-07T11:25:30.395Z,95416.57
2019-06-07T11:30:23.763Z,95415.84
2019-06-07T11:32:50.363Z,95413.35
2019-06-07T11:35:16.999Z,95419.08
2019-06-07T11:37:43.696Z,95410.06
2019-06-07T11:40:27.884Z,95410.11
2019-06-07T11:42:37.019Z,95411.77
2019-06-07T11:45:03.707Z,95404.22
2019-06-07T11:47:30.455Z,95407.92
2019-06-07T11:52:23.799Z,95408.69
2019-06-07T11:54:50.511Z,95398.94
2019-06-07T11:57:17.390Z,95393.23
2019-06-07T11:59:43.763Z,95382.06
2019-06-07T12:02:11.461Z,95389.64
2019-06-07T12:04:37.075Z,95387.79
2019-06-07T12:07:03.779Z,95384.22
2019-06-07T12:09:30.381Z,95383.59
2019-06-07T12:11:57.021Z,95372.84
2019-06-07T12:14:23.676Z,95366.80
2019-06-07T12:16:50.314Z,95366.08
2019-06-07T12:19:17.685Z,95368.61
2019-06-07T12:21:43.607Z,95365.06
2019-06-07T12:24:10.414Z,95367.31
2019-06-07T12:26:36.932Z,95368.15
2019-06-07T12:29:03.571Z,95361.89
2019-06-07T12:31:30.211Z,95365.32
2019-06-07T12:33:56.846Z,95368.65
2019-06-07T12:36:23.761Z,95369.48
2019-06-07T12:38:50.433Z,95352.67
2019-06-07T12:41:18.024Z,95351.52
2019-06-07T12:43:43.730Z,95363.86
2019-06-07T12:46:14.485Z,95361.42
2019-06-07T12:48:37.351Z,95355.82
2019-06-07T12:51:03.982Z,95353.56
2019-06-07T12:53:30.679Z,95355.26
2019-06-07T12:56:00.137Z,95347.31
2019-06-07T12:58:32.596Z,95346.20
2019-06-07T13:00:50.763Z,95347.38
2019-06-07T13:03:18.364Z,95354.30
2019-06-07T13:05:44.115Z,95346.91
2019-06-07T13:08:10.753Z,95347.86
2019-06-07T13:10:37.444Z,95342.93
2019-06-07T13:13:04.122Z,95340.31
2019-06-07T13:15:30.768Z,95342.63
2019-06-07T13:17:57.402Z,95338.75
2019-06-07T13:20:24.631Z,95335.55
2019-06-07T13:25:18.432Z,95327.91
2019-06-07T13:27:43.977Z,95328.67
2019-06-07T13:30:11.075Z,95327.02
2019-06-07T13:32:37.237Z,95321.75
2019-06-07T13:35:03.887Z,95325.62
2019-06-07T13:37:30.525Z,95326.34
2019-06-07T13:39:57.163Z,95322.13
2019-06-07T13:42:24.754Z,95316.56
2019-06-07T13:44:50.469Z,95313.91
2019-06-07T13:47:17.107Z,95315.89
2019-06-07T13:49:43.780Z,95316.52
2019-06-07T13:52:10.424Z,95294.83
2019-06-07T13:54:37.073Z,95327.95
2019-06-07T13:57:03.723Z,95324.16
2019-06-07T13:59:30.428Z,95317.88
2019-06-07T14:01:57.061Z,95322.52
2019-06-07T14:04:24.873Z,95315.64
2019-06-07T14:06:50.358Z,95313.33
2019-06-07T14:09:17.112Z,95308.56
2019-06-07T14:11:50.532Z,95316.36
2019-06-07T14:14:10.398Z,95308.68
2019-06-07T14:16:38.232Z,95310.75
2019-06-07T14:21:30.889Z,95307.84
2019-06-07T14:23:56.988Z,95305.40
2019-06-07T14:26:23.649Z,95310.80
2019-06-07T14:28:50.285Z,95305.83
2019-06-07T14:31:16.934Z,95301.65
2019-06-07T14:33:43.601Z,95302.66
2019-06-07T14:36:10.287Z,95307.80
2019-06-07T14:38:37.609Z,95308.22
2019-06-07T14:41:03.579Z,95305.61
2019-06-07T14:43:31.666Z,95305.56
2019-06-07T14:45:56.924Z,95305.13
2019-06-07T14:48:23.824Z,95302.78
2019-06-07T14:50:50.204Z,95296.63
2019-06-07T14:53:16.836Z,95300.63
2019-06-07T14:55:43.543Z,95306.48
2019-06-07T14:58:10.212Z,95306.36
2019-06-07T15:00:36.856Z,95311.59
2019-06-07T15:03:03.506Z,95315.14
2019-06-07T15:05:31.191Z,95322.54
2019-06-07T15:07:56.866Z,95318.50
2019-06-07T15:10:23.510Z,95319.26
2019-06-07T15:12:50.171Z,95316.05
2019-06-07T15:15:16.809Z,95315.63
2019-06-07T15:20:10.101Z,95329.16
2019-06-07T15:22:38.461Z,95334.41
2019-06-07T15:25:03.463Z,95330.11
2019-06-07T15:27:31.438Z,95326.20
2019-06-07T15:29:56.728Z,95327.72
2019-06-07T15:32:23.367Z,95324.36
2019-06-07T15:34:50.210Z,95324.89
2019-06-07T15:37:16.854Z,95334.59
2019-06-07T15:39:43.524Z,95328.66
2019-06-07T15:42:10.196Z,95327.31
2019-06-07T15:44:37.420Z,95323.77
2019-06-07T15:47:03.511Z,95336.64
2019-06-07T15:49:30.335Z,95336.34
2019-06-07T15:51:56.842Z,95336.59
2019-06-07T15:54:23.519Z,95340.89
2019-06-07T15:56:50.159Z,95345.40
2019-06-07T15:59:16.890Z,95348.95
2019-06-07T16:01:43.529Z,95347.84
2019-06-07T16:04:10.171Z,95351.86
2019-06-07T16:06:38.175Z,95349.61
2019-06-07T16:09:03.513Z,95343.67
2019-06-07T16:11:30.175Z,95346.16
2019-06-07T16:13:56.783Z,95342.38
2019-06-07T16:16:23.429Z,95338.15
2019-06-07T16:18:50.065Z,95337.48
2019-06-07T16:21:16.714Z,95331.15
2019-06-07T16:23:44.119Z,95336.42
2019-06-07T16:26:10.013Z,95339.61
2019-06-07T16:31:03.304Z,95331.07
2019-06-07T16:33:29.944Z,95336.00
2019-06-07T16:35:56.580Z,95342.10
2019-06-07T16:38:23.213Z,95342.45
2019-06-07T16:40:49.866Z,95345.73
2019-06-07T16:43:18.252Z,95346.88
2019-06-07T16:45:43.147Z,95349.06
2019-06-07T16:48:09.820Z,95360.15
2019-06-07T16:50:36.685Z,95360.19
2019-06-07T16:53:03.148Z,95361.14
2019-06-07T16:55:29.805Z,95355.40
2019-06-07T16:57:56.450Z,95359.41
2019-06-07T17:00:23.110Z,95367.66
2019-06-07T17:02:49.780Z,95373.05
2019-06-07T17:05:16.416Z,95370.59
2019-06-07T17:07:44.659Z,95375.77
2019-06-07T17:10:09.720Z,95369.29
2019-06-07T17:12:36.354Z,95371.77
2019-06-07T17:15:03.143Z,95366.11
2019-06-07T17:17:29.672Z,95368.92
2019-06-07T17:19:56.312Z,95366.87
2019-06-07T17:22:22.981Z,95372.23
2019-06-07T17:24:49.945Z,95377.91
2019-06-07T17:29:43.672Z,95375.69
2019-06-07T17:32:09.550Z,95377.78
2019-06-07T17:34:36.228Z,95371.91
2019-06-07T17:37:02.860Z,95379.08
2019-06-07T17:42:02.067Z,95378.45
2019-06-07T17:44:22.821Z,95385.27
2019-06-07T17:46:49.937Z,95387.30
2019-06-07T17:49:16.143Z,95385.08
2019-06-07T17:51:44.145Z,95388.68
2019-06-07T17:54:09.443Z,95389.59
2019-06-07T17:56:36.119Z,95395.92
2019-06-07T17:59:02.750Z,95389.59
2019-06-07T18:01:41.089Z,95395.42
2019-06-07T18:03:56.035Z,95390.27
2019-06-07T18:06:22.702Z,95397.95
2019-06-07T18:08:49.538Z,95389.79
2019-06-07T18:11:16.014Z,95394.16
2019-06-07T18:13:43.939Z,95401.41
2019-06-07T18:16:09.299Z,95392.45
2019-06-07T18:18:35.965Z,95395.70
2019-06-07T18:21:02.595Z,95393.08
2019-06-07T18:23:29.240Z,95398.25
2019-06-07T18:25:55.869Z,95402.67
2019-06-07T18:28:22.526Z,95395.31
2019-06-07T18:30:49.159Z,95406.16
2019-06-07T18:33:15.795Z,95405.09
2019-06-07T18:35:42.504Z,95407.22
2019-06-07T18:40:35.782Z,95417.89
2019-06-07T18:43:02.538Z,95417.10
2019-06-07T18:45:29.136Z,95426.35
2019-06-07T18:47:55.819Z,95434.33
2019-06-07T18:50:22.424Z,95435.98
2019-06-07T18:52:49.064Z,95443.84
2019-06-07T18:55:15.730Z,95436.73
2019-06-07T18:57:42.412Z,95445.20
2019-06-07T19:00:09.083Z,95450.53
2019-06-07T19:02:35.687Z,95449.81
2019-06-07T19:05:02.338Z,95459.56
2019-06-07T19:07:28.987Z,95456.66
2019-06-07T19:09:56.831Z,95464.32
2019-06-07T19:12:22.352Z,95462.32
2019-06-07T19:14:49.339Z,95470.58
2019-06-07T19:17:15.664Z,95473.36
2019-06-07T19:19:42.297Z,95479.08
2019-06-07T19:22:08.970Z,95477.31
2019-06-07T19:24:38.450Z,95481.56
2019-06-07T19:27:05.060Z,95485.14
2019-06-07T19:29:31.727Z,95488.93
2019-06-07T19:31:59.078Z,95489.07
2019-06-07T19:34:25.019Z,95487.92
2019-06-07T19:36:51.695Z,95489.29
2019-06-07T19:39:18.379Z,95489.95
2019-06-07T19:41:45.004Z,95491.98
2019-06-07T19:44:11.646Z,95490.59
2019-06-07T19:46:38.287Z,95490.88
2019-06-07T19:49:04.933Z,95492.12
2019-06-07T19:51:31.582Z,95489.23
2019-06-07T19:53:59.107Z,95490.23
2019-06-07T19:56:24.909Z,95483.41
2019-06-07T19:58:51.543Z,95493.41
2019-06-07T20:01:18.232Z,95493.67
2019-06-07T20:03:44.886Z,95490.64
2019-06-07T20:06:11.519Z,95491.55
2019-06-07T20:08:38.167Z,95496.72
2019-06-07T20:11:04.949Z,95492.42
2019-06-07T20:13:31.521Z,95497.10
2019-06-07T20:15:58.771Z,95491.05
2019-06-07T20:18:27.787Z,95500.49
2019-06-07T20:20:51.485Z,95497.88
2019-06-07T20:25:44.758Z,95501.41
2019-06-07T20:28:11.422Z,95497.62
2019-06-07T20:30:38.090Z,95507.34
2019-06-07T20:33:05.981Z,95503.30
2019-06-07T20:35:31.376Z,95500.55
2019-06-07T20:37:58.915Z,95499.30
2019-06-07T20:40:25.063Z,95505.86
2019-06-07T20:42:51.359Z,95502.46
2019-06-07T20:45:32.973Z,95508.76
2019-06-07T20:47:47.849Z,95510.02
2019-06-07T20:50:14.498Z,95509.50
2019-06-07T20:52:41.144Z,95510.54
2019-06-07T20:55:09.137Z,95514.92
2019-06-07T20:57:34.427Z,95511.06
2019-06-07T21:00:10.622Z,95515.45
2019-06-07T21:02:27.702Z,95518.64
2019-06-07T21:04:54.336Z,95515.11
2019-06-07T21:07:20.980Z,95526.09
2019-06-07T21:09:47.618Z,95523.34
2019-06-07T21:12:14.315Z,95525.08
2019-06-07T21:14:40.921Z,95525.72
2019-06-07T21:17:08.234Z,95519.91
2019-06-07T21:19:34.197Z,95526.11
2019-06-07T21:22:00.831Z,95514.88
2019-06-07T21:24:27.468Z,95527.63
2019-06-07T21:26:54.144Z,95530.91
2019-06-07T21:29:20.786Z,95531.54
2019-06-07T21:31:47.428Z,95530.52
2019-06-07T21:34:14.267Z,95530.27
2019-06-07T21:36:40.727Z,95531.52
2019-06-07T21:39:08.349Z,95532.04
2019-06-07T21:41:34.003Z,95526.23
2019-06-07T21:44:02.258Z,95533.57
2019-06-07T21:46:27.318Z,95531.94
2019-06-07T21:48:53.962Z,95534.58
2019-06-07T21:51:20.614Z,95529.17
2019-06-07T21:53:47.258Z,95531.06
2019-06-07T21:56:13.915Z,95537.37
2019-06-07T21:58:40.553Z,95532.17
2019-06-07T22:01:08.492Z,95527.28
2019-06-07T22:03:33.874Z,95531.80
2019-06-07T22:06:00.512Z,95533.97
2019-06-07T22:08:27.154Z,95527.27
2019-06-07T22:10:53.792Z,95529.80
2019-06-07T22:13:20.470Z,95525.52
2019-06-07T22:15:47.108Z,95527.53
2019-06-07T22:18:14.644Z,95527.91
2019-06-07T22:23:07.032Z,95528.13
2019-06-07T22:25:33.714Z,95518.44
2019-06-07T22:28:00.353Z,95518.94
2019-06-07T22:30:26.990Z,95525.59
2019-06-07T22:32:53.692Z,95522.96
2019-06-07T22:35:20.326Z,95521.85
2019-06-07T22:37:46.965Z,95534.96
2019-06-07T22:40:14.661Z,95532.95
2019-06-07T22:42:40.252Z,95533.30
2019-06-07T22:45:07.981Z,95530.42
2019-06-07T22:47:33.577Z,95534.46
2019-06-07T22:50:00.216Z,95534.19
2019-06-07T22:52:26.870Z,95527.66
2019-06-07T22:54:53.524Z,95530.79
2019-06-07T22:57:20.207Z,95531.92
2019-06-07T22:59:46.845Z,95530.68
2019-06-07T23:02:14.631Z,95529.02
2019-06-07T23:04:40.132Z,95529.53
2019-06-07T23:07:06.776Z,95529.67
2019-06-07T23:09:33.418Z,95530.40
2019-06-07T23:12:00.094Z,95523.61
2019-06-07T23:14:26.726Z,95525.61
2019-06-07T23:16:56.029Z,95520.20
2019-06-07T23:21:46.641Z,95513.27
2019-06-07T23:24:14.137Z,95510.36
2019-06-07T23:26:39.917Z,95519.44
2019-06-07T23:29:07.928Z,95517.80
2019-06-07T23:31:33.203Z,95513.66
2019-06-07T23:33:59.834Z,95517.95
2019-06-07T23:36:26.467Z,95515.42
2019-06-07T23:38:53.120Z,95515.17
2019-06-07T23:41:20.388Z,95510.37
2019-06-07T23:43:46.400Z,95510.13
2019-06-07T23:46:13.449Z,95506.59
2019-06-07T23:48:39.690Z,95506.70
2019-06-07T23:51:06.342Z,95508.73
2019-06-07T23:55:59.621Z,95513.65
2019-06-07T23:58:26.275Z,95514.27
